Time;durP1;ratioP1;P1;durP2;ratioP2;P2;SDS_P1;SDS_P2;PMS_P1;PMS_P2;Temp;Humidity;BMP_temperature;BMP_pressure;BME280_temperature;BME280_humidity;BME280_pressure;Samples;Min_cycle;Max_cycle;Signal;HPM_P1;HPM_P2
2023/12/30 00:00:16;;;;;;;;;;;;;;;1.03;73.50;94969.97;5017800;28;19932;-69
2023/12/30 00:02:41;;;;;;;;;;;;;;;1.23;73.93;94973.47;5017789;28;20441;-69
2023/12/30 00:05:07;;;;;;;;;;;;;;;0.94;74.96;94974.22;5018408;28;20449;-69
2023/12/30 00:07:32;;;;;;;;;;;;;;;1.28;73.26;94984.38;5017871;28;20116;-69
2023/12/30 00:09:57;;;;;;;;;;;;;;;0.69;74.03;94978.97;5017777;28;20579;-69
2023/12/30 00:12:23;;;;;;;;;;;;;;;0.61;76.96;94973.56;5017143;28;19917;-69
2023/12/30 00:14:48;;;;;;;;;;;;;;;0.37;80.25;94995.66;5015989;28;19983;-68
2023/12/30 00:17:13;;;;;;;;;;;;;;;0.51;78.73;95000.53;5018004;28;19921;-68
2023/12/30 00:19:42;;;;;;;;;;;;;;;0.30;80.79;94993.53;5014507;28;19971;-69
2023/12/30 00:22:07;;;;;;;;;;;;;;;0.67;79.85;94997.44;5015880;28;19924;-70
2023/12/30 00:24:35;;;;;;;;;;;;;;;0.51;79.94;94997.91;5018064;28;19950;-70
2023/12/30 00:27:00;;;;;;;;;;;;;;;0.33;79.76;95000.28;5016681;28;19921;-70
2023/12/30 00:29:26;;;;;;;;;;;;;;;0.19;82.09;95006.69;5017759;28;20020;-70
2023/12/30 00:31:51;;;;;;;;;;;;;;;0.70;80.25;95010.28;5017404;28;20556;-70
2023/12/30 00:34:17;;;;;;;;;;;;;;;0.66;78.94;94994.94;5016582;28;19924;-70
2023/12/30 00:36:45;;;;;;;;;;;;;;;0.50;79.49;94993.63;5016616;28;20524;-71
2023/12/30 00:39:10;;;;;;;;;;;;;;;0.29;79.27;94981.41;5015926;28;19974;-70
2023/12/30 00:41:35;;;;;;;;;;;;;;;0.94;75.96;94993.41;5015893;28;19925;-70
2023/12/30 00:44:01;;;;;;;;;;;;;;;0.90;75.32;94999.03;5015937;28;20464;-70
2023/12/30 00:46:26;;;;;;;;;;;;;;;1.16;76.27;94993.31;5015536;28;20324;-70
2023/12/30 00:48:51;;;;;;;;;;;;;;;0.94;74.55;95006.50;5016435;28;19921;-70
2023/12/30 00:51:17;;;;;;;;;;;;;;;1.01;75.31;95008.59;5015680;28;20568;-71
2023/12/30 00:53:42;;;;;;;;;;;;;;;1.36;73.77;95002.03;5015612;28;20194;-70
2023/12/30 00:56:07;;;;;;;;;;;;;;;1.09;73.90;95014.81;5015693;28;20233;-70
2023/12/30 00:58:33;;;;;;;;;;;;;;;1.26;70.96;95009.91;5015630;28;19925;-70
2023/12/30 01:00:58;;;;;;;;;;;;;;;1.04;74.89;95011.78;5015643;28;20021;-70
2023/12/30 01:03:23;;;;;;;;;;;;;;;1.37;74.08;95008.97;5012500;28;19995;-70
2023/12/30 01:05:49;;;;;;;;;;;;;;;0.97;75.70;95018.53;5016125;28;19925;-70
2023/12/30 01:08:14;;;;;;;;;;;;;;;1.18;73.40;95002.72;5015773;28;19932;-71
2023/12/30 01:10:39;;;;;;;;;;;;;;;1.28;72.04;95018.47;5015913;28;20370;-70
2023/12/30 01:13:08;;;;;;;;;;;;;;;0.85;74.80;95013.38;5018027;28;19948;-70
2023/12/30 01:15:34;;;;;;;;;;;;;;;0.99;75.10;95029.72;5014583;28;19929;-71
2023/12/30 01:18:00;;;;;;;;;;;;;;;0.85;73.62;95029.09;5015888;28;20432;-70
2023/12/30 01:20:25;;;;;;;;;;;;;;;0.73;73.94;95044.06;5015213;28;19924;-70
2023/12/30 01:22:50;;;;;;;;;;;;;;;0.63;78.52;95047.59;5015331;28;19921;-70
2023/12/30 01:25:15;;;;;;;;;;;;;;;0.78;78.39;95038.44;5018192;28;20373;-70
2023/12/30 01:27:41;;;;;;;;;;;;;;;0.40;80.44;95045.97;5020131;28;19932;-70
2023/12/30 01:30:06;;;;;;;;;;;;;;;0.08;83.67;95039.81;5020135;28;19928;-70
2023/12/30 01:32:32;;;;;;;;;;;;;;;0.41;79.86;95038.94;5019825;28;19963;-68
2023/12/30 01:34:57;;;;;;;;;;;;;;;0.30;80.05;95035.44;5021808;28;20016;-68
2023/12/30 01:37:22;;;;;;;;;;;;;;;0.84;77.58;95048.41;5022320;28;19928;-68
2023/12/30 01:39:47;;;;;;;;;;;;;;;0.94;76.67;95047.63;5022512;28;19928;-69
2023/12/30 01:42:13;;;;;;;;;;;;;;;0.87;76.46;95057.81;5020127;28;20386;-69
2023/12/30 01:44:38;;;;;;;;;;;;;;;0.40;78.66;95063.47;5020078;28;19951;-68
2023/12/30 01:47:03;;;;;;;;;;;;;;;0.82;77.97;95058.19;5019115;28;19960;-69
2023/12/30 01:49:29;;;;;;;;;;;;;;;0.66;78.40;95063.91;5025483;28;20630;-68
2023/12/30 01:51:54;;;;;;;;;;;;;;;0.58;78.36;95067.16;5019661;28;19921;-69
2023/12/30 01:54:19;;;;;;;;;;;;;;;0.38;78.71;95060.16;5018841;28;20305;-68
2023/12/30 01:56:44;;;;;;;;;;;;;;;0.23;77.84;95091.03;5018649;28;19920;-68
2023/12/30 01:59:11;;;;;;;;;;;;;;;0.25;78.28;95089.13;5021438;28;19925;-69
2023/12/30 02:01:36;;;;;;;;;;;;;;;0.79;77.77;95068.13;5022824;28;20055;-68
2023/12/30 02:04:02;;;;;;;;;;;;;;;0.84;77.07;95068.53;5018376;28;20184;-68
2023/12/30 02:06:27;;;;;;;;;;;;;;;0.91;74.26;95077.53;5020356;28;19932;-69
2023/12/30 02:08:52;;;;;;;;;;;;;;;1.26;73.76;95070.22;5017497;28;20345;-69
2023/12/30 02:11:18;;;;;;;;;;;;;;;0.98;74.90;95067.34;5016455;28;20043;-68
2023/12/30 02:13:43;;;;;;;;;;;;;;;1.00;75.51;95068.06;5019298;28;20003;-68
2023/12/30 02:16:08;;;;;;;;;;;;;;;0.73;74.65;95072.88;5019458;28;19921;-68
2023/12/30 02:18:34;;;;;;;;;;;;;;;0.77;73.29;95070.84;5018354;28;19932;-68
2023/12/30 02:20:59;;;;;;;;;;;;;;;1.07;73.07;95077.06;5017355;28;19975;-69
2023/12/30 02:23:24;;;;;;;;;;;;;;;0.89;74.18;95073.41;5019138;28;20255;-68
2023/12/30 02:25:50;;;;;;;;;;;;;;;1.47;72.77;95077.19;5019518;28;19920;-68
2023/12/30 02:28:16;;;;;;;;;;;;;;;1.54;70.84;95075.72;5020135;28;19921;-69
2023/12/30 02:30:41;;;;;;;;;;;;;;;1.52;71.62;95082.03;5019189;28;19990;-69
2023/12/30 02:33:06;;;;;;;;;;;;;;;1.07;71.51;95087.56;5018637;28;19921;-69
2023/12/30 02:35:31;;;;;;;;;;;;;;;1.67;70.09;95082.53;5018129;28;20563;-69
2023/12/30 02:37:57;;;;;;;;;;;;;;;1.62;71.73;95073.25;5016857;28;19986;-69
2023/12/30 02:40:22;;;;;;;;;;;;;;;0.97;71.32;95070.94;5018134;28;19921;-69
2023/12/30 02:42:47;;;;;;;;;;;;;;;1.26;70.54;95072.84;5018072;28;20429;-70
2023/12/30 02:45:13;;;;;;;;;;;;;;;0.93;72.44;95074.78;5018536;28;19921;-70
2023/12/30 02:47:38;;;;;;;;;;;;;;;1.17;71.96;95078.91;5018425;28;20470;-70
2023/12/30 02:50:03;;;;;;;;;;;;;;;1.28;70.45;95076.19;5022798;28;19965;-70
2023/12/30 02:52:30;;;;;;;;;;;;;;;1.06;71.92;95082.44;5018212;28;19925;-70
2023/12/30 02:54:56;;;;;;;;;;;;;;;1.07;72.55;95089.34;5017726;28;19927;-71
2023/12/30 02:57:23;;;;;;;;;;;;;;;1.01;72.25;95087.22;5017363;28;19921;-71
2023/12/30 02:59:48;;;;;;;;;;;;;;;0.91;72.89;95081.94;5023561;28;20457;-71
2023/12/30 03:02:13;;;;;;;;;;;;;;;0.88;71.77;95090.09;5015438;28;19925;-70
2023/12/30 03:04:39;;;;;;;;;;;;;;;1.06;73.23;95085.88;5019532;28;19928;-71
2023/12/30 03:07:04;;;;;;;;;;;;;;;1.10;71.54;95084.66;5017675;28;19924;-71
2023/12/30 03:09:29;;;;;;;;;;;;;;;1.07;72.36;95087.56;5017741;28;19921;-71
2023/12/30 03:11:54;;;;;;;;;;;;;;;1.44;69.58;95093.22;5018139;28;20562;-71
2023/12/30 03:14:20;;;;;;;;;;;;;;;1.19;71.79;95087.47;5016865;28;20050;-71
2023/12/30 03:16:45;;;;;;;;;;;;;;;1.17;71.54;95097.25;5018332;28;19921;-72
2023/12/30 03:19:10;;;;;;;;;;;;;;;1.36;70.96;95092.06;5010841;28;19931;-71
2023/12/30 03:21:35;;;;;;;;;;;;;;;0.88;72.10;95100.56;5016936;28;19925;-71
2023/12/30 03:24:01;;;;;;;;;;;;;;;0.90;72.40;95094.25;5016258;28;20623;-71
2023/12/30 03:26:26;;;;;;;;;;;;;;;1.20;71.50;95103.03;5017246;28;19921;-71
2023/12/30 03:28:51;;;;;;;;;;;;;;;0.52;72.12;95093.06;5018411;28;20032;-70
2023/12/30 03:31:23;;;;;;;;;;;;;;;0.86;71.85;95098.09;5018675;28;19921;-71
2023/12/30 03:33:48;;;;;;;;;;;;;;;0.42;74.38;95096.44;5019072;28;19925;-71
2023/12/30 03:36:13;;;;;;;;;;;;;;;0.29;73.71;95101.88;5016843;28;19929;-71
2023/12/30 03:38:38;;;;;;;;;;;;;;;0.70;73.22;95099.38;5017855;28;19928;-71
2023/12/30 03:41:04;;;;;;;;;;;;;;;0.47;73.25;95098.66;5018557;28;20377;-71
2023/12/30 03:43:29;;;;;;;;;;;;;;;0.57;73.38;95094.34;5017745;28;19921;-71
2023/12/30 03:45:54;;;;;;;;;;;;;;;0.47;72.77;95109.16;5018751;28;20357;-71
2023/12/30 03:48:19;;;;;;;;;;;;;;;0.39;73.34;95096.69;5017683;28;19921;-71
2023/12/30 03:50:45;;;;;;;;;;;;;;;0.28;73.42;95100.19;5018348;28;19918;-71
2023/12/30 03:53:10;;;;;;;;;;;;;;;-0.16;75.00;95105.50;5016149;28;19921;-71
2023/12/30 03:55:35;;;;;;;;;;;;;;;-0.21;75.46;95100.63;5018580;28;19978;-71
2023/12/30 03:58:00;;;;;;;;;;;;;;;-0.17;75.03;95101.19;5017917;28;19961;-71
2023/12/30 04:00:26;;;;;;;;;;;;;;;-0.18;74.31;95103.00;5018628;28;19917;-71
2023/12/30 04:02:51;;;;;;;;;;;;;;;-0.36;74.70;95126.22;5017072;28;19921;-71
2023/12/30 04:05:16;;;;;;;;;;;;;;;-0.26;73.36;95110.63;5018552;28;20281;-71
2023/12/30 04:07:41;;;;;;;;;;;;;;;-0.19;74.56;95111.78;5017087;28;19925;-71
2023/12/30 04:10:07;;;;;;;;;;;;;;;-0.13;73.98;95110.44;5012046;28;19921;-70
2023/12/30 04:12:35;;;;;;;;;;;;;;;-0.01;73.22;95113.03;5018070;28;19949;-71
2023/12/30 04:15:00;;;;;;;;;;;;;;;0.03;72.54;95138.84;5015680;28;19921;-71
2023/12/30 04:17:25;;;;;;;;;;;;;;;0.01;72.58;95109.38;5017731;28;20309;-71
2023/12/30 04:19:51;;;;;;;;;;;;;;;-0.10;73.37;95115.44;5017861;28;19971;-71
2023/12/30 04:22:16;;;;;;;;;;;;;;;0.00;72.97;95110.28;5015221;28;19925;-71
2023/12/30 04:24:41;;;;;;;;;;;;;;;0.12;72.49;95108.47;5018163;28;19964;-71
2023/12/30 04:27:06;;;;;;;;;;;;;;;0.53;71.31;95103.41;5017364;28;19927;-71
2023/12/30 04:29:31;;;;;;;;;;;;;;;0.57;70.88;95110.06;5018012;28;19955;-71
2023/12/30 04:31:57;;;;;;;;;;;;;;;0.41;70.48;95120.16;5017166;28;19955;-71
2023/12/30 04:34:22;;;;;;;;;;;;;;;0.21;71.51;95114.75;5017678;28;19964;-71
2023/12/30 04:36:48;;;;;;;;;;;;;;;0.31;71.16;95112.22;5017588;28;19921;-71
2023/12/30 04:39:13;;;;;;;;;;;;;;;0.44;70.81;95110.22;5017279;28;19928;-71
2023/12/30 04:41:38;;;;;;;;;;;;;;;0.60;70.13;95116.81;5017284;28;20499;-71
2023/12/30 04:44:04;;;;;;;;;;;;;;;0.44;71.23;95130.34;5016845;28;19936;-71
2023/12/30 04:46:29;;;;;;;;;;;;;;;0.16;71.70;95127.38;5017181;28;20556;-71
2023/12/30 04:48:54;;;;;;;;;;;;;;;0.04;72.18;95121.38;5017243;28;19967;-71
2023/12/30 04:51:20;;;;;;;;;;;;;;;0.41;70.73;95130.63;5016990;28;20186;-71
2023/12/30 04:53:45;;;;;;;;;;;;;;;0.62;70.10;95127.19;5015311;28;19925;-71
2023/12/30 04:56:14;;;;;;;;;;;;;;;0.20;71.53;95124.41;5017180;28;19932;-71
2023/12/30 04:58:39;;;;;;;;;;;;;;;0.33;71.45;95128.63;5016491;28;19921;-71
2023/12/30 05:01:05;;;;;;;;;;;;;;;0.75;69.51;95122.56;5016609;28;19921;-71
2023/12/30 05:03:30;;;;;;;;;;;;;;;0.99;69.43;95124.09;5017022;28;19932;-71
2023/12/30 05:05:57;;;;;;;;;;;;;;;1.01;68.58;95116.06;5016907;28;20562;-70
2023/12/30 05:08:22;;;;;;;;;;;;;;;1.58;66.43;95128.75;5016938;28;19921;-70
2023/12/30 05:10:47;;;;;;;;;;;;;;;1.39;66.61;95134.75;5010485;28;19966;-70
2023/12/30 05:13:12;;;;;;;;;;;;;;;1.92;65.25;95133.69;5016836;28;19987;-70
2023/12/30 05:15:38;;;;;;;;;;;;;;;1.67;66.50;95132.38;5014510;28;20172;-70
2023/12/30 05:18:04;;;;;;;;;;;;;;;1.54;68.44;95138.72;5016408;28;19928;-70
2023/12/30 05:20:29;;;;;;;;;;;;;;;0.61;73.29;95149.91;5015412;28;19921;-69
2023/12/30 05:22:58;;;;;;;;;;;;;;;1.00;71.86;95138.84;5016466;28;20617;-69
2023/12/30 05:25:23;;;;;;;;;;;;;;;1.00;71.20;95136.22;5017082;28;20132;-69
2023/12/30 05:27:48;;;;;;;;;;;;;;;0.96;71.87;95142.69;5016710;28;20386;-69
2023/12/30 05:30:13;;;;;;;;;;;;;;;0.91;72.25;95139.63;5016306;28;19921;-69
2023/12/30 05:32:39;;;;;;;;;;;;;;;0.54;74.36;95146.97;5019408;28;19917;-69
2023/12/30 05:35:04;;;;;;;;;;;;;;;0.85;73.22;95146.19;5016088;28;19956;-69
2023/12/30 05:37:30;;;;;;;;;;;;;;;0.96;72.06;95140.06;5017058;28;20051;-69
2023/12/30 05:39:55;;;;;;;;;;;;;;;0.96;72.04;95151.38;5015909;28;20182;-70
2023/12/30 05:42:21;;;;;;;;;;;;;;;0.67;72.89;95154.66;5016824;28;19921;-69
2023/12/30 05:44:47;;;;;;;;;;;;;;;0.65;73.50;95153.94;5015043;28;20488;-70
2023/12/30 05:47:12;;;;;;;;;;;;;;;0.30;74.21;95148.03;5016456;28;19929;-70
2023/12/30 05:49:39;;;;;;;;;;;;;;;0.25;75.58;95152.00;5016332;28;19948;-70
2023/12/30 05:52:05;;;;;;;;;;;;;;;0.12;75.79;95160.84;5015633;28;20754;-69
2023/12/30 05:54:30;;;;;;;;;;;;;;;0.50;74.26;95166.53;5014561;28;19925;-69
2023/12/30 05:56:55;;;;;;;;;;;;;;;-0.05;76.21;95162.19;5016188;28;20397;-70
2023/12/30 05:59:20;;;;;;;;;;;;;;;0.33;74.71;95160.88;5016669;28;19931;-69
2023/12/30 06:01:46;;;;;;;;;;;;;;;0.46;74.47;95165.13;5016147;28;19921;-70
2023/12/30 06:04:12;;;;;;;;;;;;;;;0.42;74.07;95161.94;5015701;28;19936;-70
2023/12/30 06:06:37;;;;;;;;;;;;;;;0.43;73.85;95157.50;5016149;28;19932;-70
2023/12/30 06:09:02;;;;;;;;;;;;;;;0.78;72.72;95155.56;5013574;28;19925;-69
2023/12/30 06:11:28;;;;;;;;;;;;;;;0.67;72.69;95159.91;5013425;28;19929;-70
2023/12/30 06:13:54;;;;;;;;;;;;;;;0.96;71.34;95156.63;5017683;28;19925;-69
2023/12/30 06:16:19;;;;;;;;;;;;;;;1.06;71.17;95161.09;5020625;28;19932;-71
2023/12/30 06:18:44;;;;;;;;;;;;;;;0.93;72.14;95177.03;5019067;28;19925;-70
2023/12/30 06:21:09;;;;;;;;;;;;;;;1.13;71.28;95167.50;5017668;28;19921;-70
2023/12/30 06:23:35;;;;;;;;;;;;;;;0.36;73.77;95179.91;5019703;28;19932;-71
2023/12/30 06:26:03;;;;;;;;;;;;;;;0.66;72.77;95175.75;5019938;28;19961;-71
2023/12/30 06:28:28;;;;;;;;;;;;;;;0.46;73.35;95176.44;5019759;28;19917;-70
2023/12/30 06:30:53;;;;;;;;;;;;;;;0.56;73.49;95184.38;5018820;28;20429;-70
2023/12/30 06:33:19;;;;;;;;;;;;;;;0.61;73.57;95183.16;5019568;28;19921;-71
2023/12/30 06:35:45;;;;;;;;;;;;;;;0.80;73.04;95183.31;5018667;28;19936;-70
2023/12/30 06:38:10;;;;;;;;;;;;;;;0.58;73.57;95189.50;5019634;28;19940;-70
2023/12/30 06:40:35;;;;;;;;;;;;;;;0.15;74.61;95199.03;5019292;28;20716;-70
2023/12/30 06:43:01;;;;;;;;;;;;;;;-0.09;76.61;95213.13;5018359;28;19929;-70
2023/12/30 06:45:26;;;;;;;;;;;;;;;-0.30;77.17;95237.41;5018886;28;19932;-70
2023/12/30 06:47:51;;;;;;;;;;;;;;;-0.66;81.15;95213.13;5018789;28;19925;-69
2023/12/30 06:50:19;;;;;;;;;;;;;;;-0.81;81.49;95223.84;5019144;28;20066;-70
2023/12/30 06:52:45;;;;;;;;;;;;;;;-1.22;83.45;95233.81;5017013;28;19925;-70
2023/12/30 06:55:11;;;;;;;;;;;;;;;-1.34;85.25;95222.47;5019050;28;19956;-69
2023/12/30 06:57:37;;;;;;;;;;;;;;;-1.72;87.94;95222.53;5019459;28;20393;-69
2023/12/30 07:00:03;;;;;;;;;;;;;;;-1.53;86.76;95234.25;5018922;28;19931;-69
2023/12/30 07:02:28;;;;;;;;;;;;;;;-1.65;87.12;95228.16;5019251;28;20016;-69
2023/12/30 07:04:53;;;;;;;;;;;;;;;-1.07;84.92;95223.97;5018317;28;19929;-69
2023/12/30 07:07:18;;;;;;;;;;;;;;;-0.44;81.64;95217.53;5018312;28;20207;-70
2023/12/30 07:09:44;;;;;;;;;;;;;;;-0.44;81.73;95221.00;5019149;28;19925;-70
2023/12/30 07:12:09;;;;;;;;;;;;;;;0.18;78.59;95230.22;5018893;28;20361;-70
2023/12/30 07:14:37;;;;;;;;;;;;;;;0.13;78.61;95241.03;5016465;28;20421;-70
2023/12/30 07:17:02;;;;;;;;;;;;;;;0.78;74.73;95232.38;5018859;28;20406;-70
2023/12/30 07:19:28;;;;;;;;;;;;;;;0.99;75.29;95242.06;5018196;28;20149;-70
2023/12/30 07:21:53;;;;;;;;;;;;;;;1.42;72.81;95232.38;5018046;28;19983;-70
2023/12/30 07:24:18;;;;;;;;;;;;;;;0.57;75.24;95251.53;5017311;28;19928;-70
2023/12/30 07:26:44;;;;;;;;;;;;;;;-0.48;79.59;95261.41;5018086;28;20687;-70
2023/12/30 07:29:09;;;;;;;;;;;;;;;-0.41;79.84;95268.81;5018262;28;19925;-69
2023/12/30 07:31:34;;;;;;;;;;;;;;;-0.73;80.02;95255.44;5017640;28;20722;-69
2023/12/30 07:33:59;;;;;;;;;;;;;;;-0.19;78.28;95258.31;5017338;28;19955;-69
2023/12/30 07:36:26;;;;;;;;;;;;;;;-0.07;77.89;95259.16;5017629;28;19933;-69
2023/12/30 07:38:52;;;;;;;;;;;;;;;0.17;77.00;95254.75;5017526;28;20478;-69
2023/12/30 07:41:17;;;;;;;;;;;;;;;0.69;74.59;95259.34;5018228;28;19933;-69
2023/12/30 07:43:42;;;;;;;;;;;;;;;0.72;73.08;95246.00;5017213;28;20261;-70
2023/12/30 07:46:08;;;;;;;;;;;;;;;-0.37;76.25;95267.63;5018027;28;19925;-69
2023/12/30 07:48:35;;;;;;;;;;;;;;;-0.72;77.77;95278.03;5016412;28;20219;-69
2023/12/30 07:51:00;;;;;;;;;;;;;;;-0.28;77.79;95277.34;5017562;28;20338;-69
2023/12/30 07:53:25;;;;;;;;;;;;;;;0.25;75.84;95275.91;5015436;28;19932;-69
2023/12/30 07:55:51;;;;;;;;;;;;;;;0.65;73.35;95274.47;5017024;28;19925;-69
2023/12/30 07:58:16;;;;;;;;;;;;;;;0.68;71.97;95263.75;5017852;28;19956;-69
2023/12/30 08:00:41;;;;;;;;;;;;;;;1.76;69.52;95268.06;5018170;28;19925;-69
2023/12/30 08:03:07;;;;;;;;;;;;;;;2.16;68.12;95257.69;5016924;28;20142;-69
2023/12/30 08:05:32;;;;;;;;;;;;;;;2.18;67.44;95267.09;5018218;28;19932;-69
2023/12/30 08:07:58;;;;;;;;;;;;;;;2.22;65.73;95263.25;5017622;28;19932;-69
2023/12/30 08:10:24;;;;;;;;;;;;;;;2.10;67.60;95265.16;5017229;28;20012;-69
2023/12/30 08:12:49;;;;;;;;;;;;;;;2.36;65.11;95263.84;5017699;28;20406;-69
2023/12/30 08:15:14;;;;;;;;;;;;;;;2.41;66.38;95271.34;5016461;28;19967;-69
2023/12/30 08:17:40;;;;;;;;;;;;;;;2.56;64.93;95275.22;5015943;28;19971;-69
2023/12/30 08:20:06;;;;;;;;;;;;;;;2.59;65.47;95272.31;5015650;28;20016;-69
2023/12/30 08:22:32;;;;;;;;;;;;;;;2.70;64.67;95274.00;5017045;28;19929;-69
2023/12/30 08:24:58;;;;;;;;;;;;;;;2.83;64.67;95275.53;5016845;28;20228;-69
2023/12/30 08:27:23;;;;;;;;;;;;;;;2.75;63.71;95290.19;5016977;28;20008;-69
2023/12/30 08:29:48;;;;;;;;;;;;;;;2.64;62.57;95293.78;5017157;28;20425;-69
2023/12/30 08:32:14;;;;;;;;;;;;;;;2.94;62.29;95292.97;5017020;28;20019;-69
2023/12/30 08:34:39;;;;;;;;;;;;;;;2.69;62.53;95298.59;5017168;28;19955;-69
2023/12/30 08:37:08;;;;;;;;;;;;;;;2.25;65.17;95299.75;5016900;28;19978;-69
2023/12/30 08:39:34;;;;;;;;;;;;;;;1.60;66.39;95293.00;5017017;28;19936;-69
2023/12/30 08:41:59;;;;;;;;;;;;;;;1.98;64.95;95297.75;5016582;28;19924;-69
2023/12/30 08:44:26;;;;;;;;;;;;;;;1.81;66.55;95307.06;5015777;28;19925;-69
2023/12/30 08:46:52;;;;;;;;;;;;;;;1.92;65.89;95300.88;5016257;28;19982;-69
2023/12/30 08:49:17;;;;;;;;;;;;;;;1.79;65.64;95307.19;5016127;28;20497;-70
2023/12/30 08:51:42;;;;;;;;;;;;;;;1.86;65.63;95308.31;5016336;28;20713;-69
2023/12/30 08:54:07;;;;;;;;;;;;;;;2.03;65.74;95310.44;5013475;28;19955;-69
2023/12/30 08:56:33;;;;;;;;;;;;;;;1.77;66.35;95319.59;5016928;28;20068;-70
2023/12/30 08:58:58;;;;;;;;;;;;;;;1.80;67.51;95314.09;5016654;28;20558;-69
2023/12/30 09:01:24;;;;;;;;;;;;;;;2.20;66.66;95315.09;5010302;28;19928;-69
2023/12/30 09:03:49;;;;;;;;;;;;;;;2.35;65.87;95320.81;5016535;28;20031;-70
2023/12/30 09:06:14;;;;;;;;;;;;;;;1.87;66.30;95343.28;5016068;28;19921;-70
2023/12/30 09:08:41;;;;;;;;;;;;;;;1.81;68.19;95325.44;5016592;28;20553;-69
2023/12/30 09:11:16;;;;;;;;;;;;;;;2.17;66.97;95327.69;5016090;28;19964;-69
2023/12/30 09:13:41;;;;;;;;;;;;;;;2.11;67.04;95342.97;5014707;28;19929;-69
2023/12/30 09:16:06;;;;;;;;;;;;;;;2.39;65.45;95327.44;5016404;28;19921;-70
2023/12/30 09:18:32;;;;;;;;;;;;;;;2.11;66.56;95339.53;5016027;28;20038;-69
2023/12/30 09:20:57;;;;;;;;;;;;;;;2.09;66.21;95334.41;5015281;28;19925;-69
2023/12/30 09:23:22;;;;;;;;;;;;;;;1.59;69.85;95351.69;5016475;28;20005;-70
2023/12/30 09:25:47;;;;;;;;;;;;;;;2.52;66.72;95329.84;5016714;28;20327;-69
2023/12/30 09:28:13;;;;;;;;;;;;;;;1.49;70.47;95335.00;5015410;28;20003;-69
2023/12/30 09:30:38;;;;;;;;;;;;;;;2.32;66.82;95330.75;5016083;28;20255;-69
2023/12/30 09:33:03;;;;;;;;;;;;;;;2.64;65.09;95345.50;5016470;28;19955;-69
2023/12/30 09:35:29;;;;;;;;;;;;;;;2.22;67.62;95343.88;5015896;28;19936;-70
2023/12/30 09:37:54;;;;;;;;;;;;;;;2.87;65.53;95346.13;5015808;28;20157;-69
2023/12/30 09:40:19;;;;;;;;;;;;;;;2.80;65.33;95352.88;5015812;28;19923;-69
2023/12/30 09:42:45;;;;;;;;;;;;;;;2.59;65.09;95358.22;5016240;28;20550;-69
2023/12/30 09:45:10;;;;;;;;;;;;;;;2.87;64.98;95355.78;5013285;28;20000;-70
2023/12/30 09:47:35;;;;;;;;;;;;;;;2.91;65.70;95358.03;5018501;28;20060;-70
2023/12/30 09:50:01;;;;;;;;;;;;;;;1.43;70.37;95380.97;5019409;28;19921;-70
2023/12/30 09:52:26;;;;;;;;;;;;;;;2.60;66.14;95371.25;5018305;28;20044;-70
2023/12/30 09:54:51;;;;;;;;;;;;;;;3.01;64.90;95375.59;5023511;28;19925;-70
2023/12/30 09:57:16;;;;;;;;;;;;;;;2.94;65.11;95374.47;5020362;28;20034;-70
2023/12/30 09:59:43;;;;;;;;;;;;;;;2.42;67.20;95372.84;5025266;28;19932;-70
2023/12/30 10:02:09;;;;;;;;;;;;;;;2.87;65.58;95377.69;5018900;28;20472;-70
2023/12/30 10:04:35;;;;;;;;;;;;;;;2.67;65.17;95368.06;5020204;28;20002;-70
2023/12/30 10:07:01;;;;;;;;;;;;;;;2.39;65.69;95374.75;5019721;28;19921;-70
2023/12/30 10:09:26;;;;;;;;;;;;;;;2.98;65.36;95378.50;5020074;28;19921;-70
2023/12/30 10:11:51;;;;;;;;;;;;;;;2.98;65.14;95368.00;5020206;28;20327;-71
2023/12/30 10:14:17;;;;;;;;;;;;;;;2.95;64.52;95384.03;5015106;28;19944;-71
2023/12/30 10:16:42;;;;;;;;;;;;;;;2.56;65.64;95383.00;5018886;28;19917;-71
2023/12/30 10:19:08;;;;;;;;;;;;;;;3.21;64.47;95373.84;5017799;28;19978;-70
2023/12/30 10:21:33;;;;;;;;;;;;;;;3.49;63.47;95375.78;5017276;28;20333;-70
2023/12/30 10:24:00;;;;;;;;;;;;;;;3.38;64.36;95371.47;5012954;28;19921;-71
2023/12/30 10:26:25;;;;;;;;;;;;;;;3.63;63.75;95369.28;5016083;28;19926;-71
2023/12/30 10:28:51;;;;;;;;;;;;;;;3.04;64.55;95381.41;5018628;28;19917;-71
2023/12/30 10:31:16;;;;;;;;;;;;;;;3.14;64.08;95367.47;5015458;28;19990;-71
2023/12/30 10:33:41;;;;;;;;;;;;;;;3.14;63.46;95368.28;5019183;28;19917;-70
2023/12/30 10:36:07;;;;;;;;;;;;;;;3.12;64.55;95364.97;5018799;28;19929;-70
2023/12/30 10:38:33;;;;;;;;;;;;;;;3.55;63.67;95359.44;5018437;28;20341;-71
2023/12/30 10:40:58;;;;;;;;;;;;;;;2.72;65.53;95355.38;5017210;28;20385;-71
2023/12/30 10:43:23;;;;;;;;;;;;;;;2.52;65.36;95352.69;5017602;28;20625;-71
2023/12/30 10:45:53;;;;;;;;;;;;;;;3.33;64.30;95352.66;5017236;28;19964;-71
2023/12/30 10:48:18;;;;;;;;;;;;;;;3.33;63.23;95350.84;5016947;28;19921;-71
2023/12/30 10:50:43;;;;;;;;;;;;;;;3.56;63.41;95342.69;5014597;28;19929;-71
2023/12/30 10:53:11;;;;;;;;;;;;;;;3.07;63.64;95346.13;5015612;28;19944;-71
2023/12/30 10:55:36;;;;;;;;;;;;;;;3.24;63.00;95335.88;5018298;28;19925;-71
2023/12/30 10:58:02;;;;;;;;;;;;;;;3.13;62.90;95337.69;5016373;28;19924;-71
2023/12/30 11:00:27;;;;;;;;;;;;;;;3.01;63.93;95333.53;5018382;28;19917;-71
2023/12/30 11:02:52;;;;;;;;;;;;;;;4.38;61.10;95343.97;5016590;28;19921;-71
2023/12/30 11:05:27;;;;;;;;;;;;;;;4.58;59.39;95348.19;5016955;28;20211;-71
2023/12/30 11:07:53;;;;;;;;;;;;;;;4.22;59.49;95342.78;5018400;28;20559;-71
2023/12/30 11:10:19;;;;;;;;;;;;;;;4.25;58.86;95357.50;5018996;28;19929;-71
2023/12/30 11:12:45;;;;;;;;;;;;;;;3.96;60.19;95339.97;5019457;28;20521;-71
2023/12/30 11:15:30;;;;;;;;;;;;;;;4.48;59.07;95346.56;5014629;28;19952;-71
2023/12/30 11:17:56;;;;;;;;;;;;;;;3.75;59.74;95347.09;5019379;28;19913;-71
2023/12/30 11:20:24;;;;;;;;;;;;;;;2.96;63.28;95348.91;5016549;28;19928;-71
2023/12/30 11:22:51;;;;;;;;;;;;;;;3.53;60.74;95335.91;5017976;28;19988;-71
2023/12/30 11:25:17;;;;;;;;;;;;;;;3.75;59.72;95341.00;5017580;28;19925;-71
2023/12/30 11:27:46;;;;;;;;;;;;;;;3.57;59.57;95343.53;5018191;28;19958;-71
2023/12/30 11:30:17;;;;;;;;;;;;;;;3.65;59.81;95335.75;5017934;28;19913;-71
2023/12/30 11:32:43;;;;;;;;;;;;;;;4.47;58.51;95337.00;5016224;28;20369;-71
2023/12/30 11:35:09;;;;;;;;;;;;;;;5.28;54.13;95334.56;5017509;28;20015;-72
2023/12/30 11:37:35;;;;;;;;;;;;;;;4.99;55.08;95338.25;5018385;28;20023;-71
2023/12/30 11:40:00;;;;;;;;;;;;;;;5.88;53.63;95329.56;5018525;28;19929;-71
2023/12/30 11:42:25;;;;;;;;;;;;;;;4.27;55.78;95337.06;5017959;28;19921;-72
2023/12/30 11:44:50;;;;;;;;;;;;;;;4.19;56.81;95346.53;5017356;28;20015;-69
2023/12/30 11:47:22;;;;;;;;;;;;;;;5.13;54.55;95331.63;5018411;28;20333;-69
2023/12/30 11:49:47;;;;;;;;;;;;;;;4.91;54.90;95334.53;5017995;28;20319;-69
2023/12/30 11:52:12;;;;;;;;;;;;;;;5.68;54.94;95316.56;5016939;28;20056;-69
2023/12/30 11:54:39;;;;;;;;;;;;;;;5.12;54.34;95324.69;5016328;28;19925;-69
2023/12/30 11:57:06;;;;;;;;;;;;;;;4.65;56.13;95327.31;5017526;28;19980;-69
2023/12/30 11:59:31;;;;;;;;;;;;;;;4.77;54.92;95330.59;5017090;28;20345;-69
2023/12/30 12:02:07;;;;;;;;;;;;;;;4.11;55.76;95317.44;5017990;28;19924;-71
2023/12/30 12:04:32;;;;;;;;;;;;;;;4.81;54.10;95310.00;5018144;28;19932;-72
2023/12/30 12:06:58;;;;;;;;;;;;;;;3.39;57.43;95317.88;5017449;28;19924;-71
2023/12/30 12:09:23;;;;;;;;;;;;;;;4.77;54.72;95306.03;5015716;28;20591;-71
2023/12/30 12:11:48;;;;;;;;;;;;;;;3.74;56.42;95318.28;5014480;28;19967;-71
2023/12/30 12:14:15;;;;;;;;;;;;;;;3.34;57.60;95325.34;5011502;28;19932;-71
2023/12/30 12:16:41;;;;;;;;;;;;;;;4.64;53.81;95309.84;5016986;28;19940;-71
2023/12/30 12:19:06;;;;;;;;;;;;;;;5.38;53.30;95316.00;5018914;28;19921;-71
2023/12/30 12:21:31;;;;;;;;;;;;;;;5.83;52.24;95312.38;5015121;28;19967;-71
2023/12/30 12:23:56;;;;;;;;;;;;;;;4.17;54.56;95318.69;5016622;28;20354;-71
2023/12/30 12:26:22;;;;;;;;;;;;;;;4.26;54.33;95309.91;5017096;28;20016;-71
2023/12/30 12:28:48;;;;;;;;;;;;;;;4.21;54.78;95316.59;5017155;28;20004;-70
2023/12/30 12:31:13;;;;;;;;;;;;;;;4.51;53.99;95317.25;5015739;28;20649;-71
2023/12/30 12:33:39;;;;;;;;;;;;;;;3.49;56.06;95317.88;5016666;28;19921;-71
2023/12/30 12:36:05;;;;;;;;;;;;;;;3.91;55.27;95314.88;5016231;28;20027;-71
2023/12/30 12:38:30;;;;;;;;;;;;;;;4.57;53.37;95296.44;5015498;28;19986;-71
2023/12/30 12:40:55;;;;;;;;;;;;;;;4.35;54.79;95297.63;5015847;28;19956;-71
2023/12/30 12:43:21;;;;;;;;;;;;;;;4.99;52.88;95298.66;5016362;28;19922;-71
2023/12/30 12:45:46;;;;;;;;;;;;;;;5.01;53.44;95288.78;5017291;28;20374;-71